sensor_id;sensor_type;location;lat;lon;timestamp;pressure;altitude;pressure_sealevel;temperature;humidity
26699;BME280;14313;50.892;13.756;2022-09-11T00:00:41;97505.59;;;18.12;83.18
26699;BME280;14313;50.892;13.756;2022-09-11T00:03:07;97515.06;;;18.41;82.34
26699;BME280;14313;50.892;13.756;2022-09-11T00:05:36;97518.34;;;18.36;82.48
26699;BME280;14313;50.892;13.756;2022-09-11T00:08:10;97514.66;;;18.30;82.51
26699;BME280;14313;50.892;13.756;2022-09-11T00:10:37;97511.19;;;18.56;81.55
26699;BME280;14313;50.892;13.756;2022-09-11T00:13:09;97516.47;;;18.63;80.58
26699;BME280;14313;50.892;13.756;2022-09-11T00:15:36;97515.28;;;18.26;82.44
26699;BME280;14313;50.892;13.756;2022-09-11T00:18:02;97518.94;;;18.38;82.01
26699;BME280;14313;50.892;13.756;2022-09-11T00:20:27;97518.53;;;18.28;82.77
26699;BME280;14313;50.892;13.756;2022-09-11T00:22:53;97510.75;;;18.33;82.03
26699;BME280;14313;50.892;13.756;2022-09-11T00:25:18;97512.59;;;18.32;82.19
26699;BME280;14313;50.892;13.756;2022-09-11T00:27:43;97511.13;;;18.37;82.24
26699;BME280;14313;50.892;13.756;2022-09-11T00:30:10;97510.13;;;18.24;82.49
26699;BME280;14313;50.892;13.756;2022-09-11T00:32:35;97504.97;;;18.49;81.90
26699;BME280;14313;50.892;13.756;2022-09-11T00:35:01;97507.25;;;18.39;81.86
26699;BME280;14313;50.892;13.756;2022-09-11T00:37:26;97508.69;;;18.55;81.45
26699;BME280;14313;50.892;13.756;2022-09-11T00:39:52;97511.97;;;18.44;81.33
26699;BME280;14313;50.892;13.756;2022-09-11T00:42:19;97501.50;;;18.55;81.12
26699;BME280;14313;50.892;13.756;2022-09-11T00:47:13;97498.84;;;18.22;81.66
26699;BME280;14313;50.892;13.756;2022-09-11T00:49:48;97502.75;;;18.20;82.53
26699;BME280;14313;50.892;13.756;2022-09-11T00:52:19;97499.25;;;18.39;81.56
26699;BME280;14313;50.892;13.756;2022-09-11T00:55:00;97502.09;;;18.70;80.08
26699;BME280;14313;50.892;13.756;2022-09-11T00:57:31;97503.34;;;18.42;80.96
26699;BME280;14313;50.892;13.756;2022-09-11T01:00:00;97507.06;;;18.41;81.37
26699;BME280;14313;50.892;13.756;2022-09-11T01:02:27;97501.72;;;18.21;81.92
26699;BME280;14313;50.892;13.756;2022-09-11T01:04:56;97511.56;;;18.40;81.21
26699;BME280;14313;50.892;13.756;2022-09-11T01:07:23;97503.75;;;18.52;80.36
26699;BME280;14313;50.892;13.756;2022-09-11T01:09:50;97501.50;;;18.36;81.11
26699;BME280;14313;50.892;13.756;2022-09-11T01:12:27;97500.91;;;18.20;81.67
26699;BME280;14313;50.892;13.756;2022-09-11T01:15:01;97498.41;;;18.06;82.63
26699;BME280;14313;50.892;13.756;2022-09-11T01:17:35;97492.69;;;18.15;82.08
26699;BME280;14313;50.892;13.756;2022-09-11T01:25:27;97501.09;;;18.19;81.69
26699;BME280;14313;50.892;13.756;2022-09-11T01:28:00;97503.16;;;18.10;82.29
26699;BME280;14313;50.892;13.756;2022-09-11T01:30:37;97498.03;;;18.09;81.32
26699;BME280;14313;50.892;13.756;2022-09-11T01:33:28;97497.81;;;18.30;80.86
26699;BME280;14313;50.892;13.756;2022-09-11T01:36:09;97494.31;;;17.90;82.40
26699;BME280;14313;50.892;13.756;2022-09-11T01:38:44;97497.16;;;17.69;83.62
26699;BME280;14313;50.892;13.756;2022-09-11T01:41:25;97493.06;;;17.86;82.96
26699;BME280;14313;50.892;13.756;2022-09-11T01:43:57;97493.06;;;17.79;83.02
26699;BME280;14313;50.892;13.756;2022-09-11T01:46:27;97490.38;;;17.66;83.85
26699;BME280;14313;50.892;13.756;2022-09-11T01:49:00;97493.06;;;17.73;83.42
26699;BME280;14313;50.892;13.756;2022-09-11T01:51:30;97500.25;;;17.79;83.05
26699;BME280;14313;50.892;13.756;2022-09-11T01:53:57;97495.91;;;17.65;83.27
26699;BME280;14313;50.892;13.756;2022-09-11T01:56:35;97493.66;;;17.68;83.54
26699;BME280;14313;50.892;13.756;2022-09-11T01:59:06;97503.31;;;17.76;83.34
26699;BME280;14313;50.892;13.756;2022-09-11T02:01:36;97503.75;;;17.93;82.55
26699;BME280;14313;50.892;13.756;2022-09-11T02:04:13;97497.81;;;17.84;81.87
26699;BME280;14313;50.892;13.756;2022-09-11T02:06:50;97512.78;;;17.92;81.89
26699;BME280;14313;50.892;13.756;2022-09-11T02:09:19;97505.63;;;17.99;81.61
26699;BME280;14313;50.892;13.756;2022-09-11T02:11:47;97509.28;;;17.78;82.09
26699;BME280;14313;50.892;13.756;2022-09-11T02:14:25;97510.72;;;17.74;82.41
26699;BME280;14313;50.892;13.756;2022-09-11T02:17:05;97501.03;;;17.60;82.92
26699;BME280;14313;50.892;13.756;2022-09-11T02:19:34;97504.69;;;17.59;83.28
26699;BME280;14313;50.892;13.756;2022-09-11T02:21:59;97504.34;;;17.68;82.74
26699;BME280;14313;50.892;13.756;2022-09-11T02:24:26;97505.09;;;17.49;83.32
26699;BME280;14313;50.892;13.756;2022-09-11T02:27:02;97497.00;;;17.29;84.36
26699;BME280;14313;50.892;13.756;2022-09-11T02:29:30;97491.91;;;17.28;84.47
26699;BME280;14313;50.892;13.756;2022-09-11T02:31:56;97503.78;;;17.32;84.09
26699;BME280;14313;50.892;13.756;2022-09-11T02:34:26;97503.63;;;17.46;84.10
26699;BME280;14313;50.892;13.756;2022-09-11T02:37:44;97507.28;;;17.39;83.94
26699;BME280;14313;50.892;13.756;2022-09-11T02:40:26;97504.50;;;17.06;85.79
26699;BME280;14313;50.892;13.756;2022-09-11T02:43:12;97503.59;;;17.33;84.72
26699;BME280;14313;50.892;13.756;2022-09-11T02:45:50;97504.63;;;17.32;85.08
26699;BME280;14313;50.892;13.756;2022-09-11T02:48:34;97502.41;;;17.42;83.99
26699;BME280;14313;50.892;13.756;2022-09-11T02:54:15;97493.97;;;17.39;84.23
26699;BME280;14313;50.892;13.756;2022-09-11T02:56:47;97502.78;;;17.39;83.62
26699;BME280;14313;50.892;13.756;2022-09-11T02:59:24;97495.00;;;17.44;83.88
26699;BME280;14313;50.892;13.756;2022-09-11T03:01:53;97498.50;;;17.45;83.79
26699;BME280;14313;50.892;13.756;2022-09-11T03:04:22;97496.56;;;17.19;85.35
26699;BME280;14313;50.892;13.756;2022-09-11T03:06:49;97492.34;;;17.44;83.49
26699;BME280;14313;50.892;13.756;2022-09-11T03:09:16;97496.84;;;17.37;84.15
26699;BME280;14313;50.892;13.756;2022-09-11T03:11:43;97506.06;;;17.35;84.89
26699;BME280;14313;50.892;13.756;2022-09-11T03:14:10;97496.63;;;17.39;84.49
26699;BME280;14313;50.892;13.756;2022-09-11T03:16:37;97503.53;;;17.20;85.62
26699;BME280;14313;50.892;13.756;2022-09-11T03:19:04;97498.72;;;17.50;83.92
26699;BME280;14313;50.892;13.756;2022-09-11T03:21:30;97500.13;;;17.46;84.06
26699;BME280;14313;50.892;13.756;2022-09-11T03:23:57;97497.50;;;17.53;83.64
26699;BME280;14313;50.892;13.756;2022-09-11T03:26:24;97494.22;;;17.57;83.70
26699;BME280;14313;50.892;13.756;2022-09-11T03:28:49;97498.97;;;17.62;83.26
26699;BME280;14313;50.892;13.756;2022-09-11T03:31:16;97500.78;;;17.55;83.92
26699;BME280;14313;50.892;13.756;2022-09-11T03:33:41;97500.28;;;17.18;85.54
26699;BME280;14313;50.892;13.756;2022-09-11T03:36:08;97511.59;;;17.33;84.45
26699;BME280;14313;50.892;13.756;2022-09-11T03:38:34;97504.03;;;17.43;84.54
26699;BME280;14313;50.892;13.756;2022-09-11T03:40:59;97506.22;;;17.20;85.26
26699;BME280;14313;50.892;13.756;2022-09-11T03:43:25;97512.25;;;17.48;83.87
26699;BME280;14313;50.892;13.756;2022-09-11T03:45:51;97512.41;;;17.34;84.86
26699;BME280;14313;50.892;13.756;2022-09-11T03:48:17;97514.84;;;17.22;84.80
26699;BME280;14313;50.892;13.756;2022-09-11T03:50:46;97512.84;;;17.37;84.28
26699;BME280;14313;50.892;13.756;2022-09-11T03:53:13;97517.44;;;17.09;86.26
26699;BME280;14313;50.892;13.756;2022-09-11T03:55:39;97525.13;;;17.32;84.74
26699;BME280;14313;50.892;13.756;2022-09-11T03:58:05;97518.28;;;17.16;85.52
26699;BME280;14313;50.892;13.756;2022-09-11T04:00:32;97519.31;;;17.15;85.49
26699;BME280;14313;50.892;13.756;2022-09-11T04:02:58;97528.34;;;17.21;85.07
26699;BME280;14313;50.892;13.756;2022-09-11T04:05:38;97522.50;;;17.45;83.99
26699;BME280;14313;50.892;13.756;2022-09-11T04:08:04;97523.72;;;17.42;84.38
26699;BME280;14313;50.892;13.756;2022-09-11T04:10:32;97525.47;;;17.16;85.70
26699;BME280;14313;50.892;13.756;2022-09-11T04:12:58;97527.66;;;17.05;86.51
26699;BME280;14313;50.892;13.756;2022-09-11T04:15:24;97530.78;;;17.16;86.32
26699;BME280;14313;50.892;13.756;2022-09-11T04:17:49;97547.94;;;17.00;87.16
26699;BME280;14313;50.892;13.756;2022-09-11T04:20:15;97537.91;;;17.09;86.76
26699;BME280;14313;50.892;13.756;2022-09-11T04:22:43;97548.78;;;17.07;87.16
26699;BME280;14313;50.892;13.756;2022-09-11T04:25:08;97544.84;;;16.96;88.07
26699;BME280;14313;50.892;13.756;2022-09-11T04:27:35;97544.97;;;17.23;86.30
26699;BME280;14313;50.892;13.756;2022-09-11T04:30:03;97543.75;;;17.25;86.30
26699;BME280;14313;50.892;13.756;2022-09-11T04:32:28;97540.66;;;17.22;86.32
26699;BME280;14313;50.892;13.756;2022-09-11T04:34:54;97541.56;;;17.42;85.70
26699;BME280;14313;50.892;13.756;2022-09-11T04:37:20;97543.94;;;17.24;85.64
26699;BME280;14313;50.892;13.756;2022-09-11T04:39:45;97546.59;;;17.17;86.75
26699;BME280;14313;50.892;13.756;2022-09-11T04:42:13;97543.69;;;17.12;87.11
26699;BME280;14313;50.892;13.756;2022-09-11T04:44:41;97544.34;;;17.21;86.67
26699;BME280;14313;50.892;13.756;2022-09-11T04:47:07;97543.69;;;17.60;84.70
26699;BME280;14313;50.892;13.756;2022-09-11T04:49:33;97548.88;;;17.27;86.04
26699;BME280;14313;50.892;13.756;2022-09-11T04:51:59;97542.41;;;17.49;85.04
26699;BME280;14313;50.892;13.756;2022-09-11T04:54:30;97549.78;;;17.47;84.97
26699;BME280;14313;50.892;13.756;2022-09-11T04:56:57;97541.59;;;17.55;84.47
26699;BME280;14313;50.892;13.756;2022-09-11T04:59:23;97552.59;;;17.32;86.05
26699;BME280;14313;50.892;13.756;2022-09-11T05:02:02;97546.31;;;17.53;85.17
26699;BME280;14313;50.892;13.756;2022-09-11T05:04:28;97545.56;;;17.66;84.32
26699;BME280;14313;50.892;13.756;2022-09-11T05:06:53;97539.13;;;17.47;85.17
26699;BME280;14313;50.892;13.756;2022-09-11T05:09:19;97548.69;;;17.28;86.49
26699;BME280;14313;50.892;13.756;2022-09-11T05:11:46;97550.31;;;17.77;84.07
26699;BME280;14313;50.892;13.756;2022-09-11T05:14:12;97543.41;;;17.41;85.67
26699;BME280;14313;50.892;13.756;2022-09-11T05:16:40;97548.28;;;17.79;84.26
26699;BME280;14313;50.892;13.756;2022-09-11T05:19:07;97554.44;;;17.79;83.71
26699;BME280;14313;50.892;13.756;2022-09-11T05:21:34;97552.94;;;17.70;83.66
26699;BME280;14313;50.892;13.756;2022-09-11T05:24:00;97559.16;;;17.90;83.34
26699;BME280;14313;50.892;13.756;2022-09-11T05:26:29;97573.56;;;18.22;82.47
26699;BME280;14313;50.892;13.756;2022-09-11T05:28:57;97571.53;;;18.05;82.36
26699;BME280;14313;50.892;13.756;2022-09-11T05:31:23;97572.75;;;18.15;83.05
26699;BME280;14313;50.892;13.756;2022-09-11T05:33:54;97577.91;;;18.10;83.40
26699;BME280;14313;50.892;13.756;2022-09-11T05:36:21;97581.16;;;17.99;83.20
26699;BME280;14313;50.892;13.756;2022-09-11T05:38:47;97583.22;;;18.04;84.05
26699;BME280;14313;50.892;13.756;2022-09-11T05:41:13;97587.38;;;18.46;82.03
26699;BME280;14313;50.892;13.756;2022-09-11T05:43:40;97583.91;;;18.65;81.20
26699;BME280;14313;50.892;13.756;2022-09-11T05:46:07;97586.13;;;18.48;82.00
26699;BME280;14313;50.892;13.756;2022-09-11T05:48:33;97582.25;;;18.57;81.45
26699;BME280;14313;50.892;13.756;2022-09-11T05:51:03;97602.53;;;18.32;82.44
26699;BME280;14313;50.892;13.756;2022-09-11T05:53:31;97604.03;;;18.61;81.66
26699;BME280;14313;50.892;13.756;2022-09-11T05:56:05;97605.44;;;18.50;80.90
26699;BME280;14313;50.892;13.756;2022-09-11T05:58:31;97610.13;;;18.28;82.73
26699;BME280;14313;50.892;13.756;2022-09-11T06:01:07;97608.69;;;18.32;82.91
26699;BME280;14313;50.892;13.756;2022-09-11T06:03:36;97610.34;;;18.33;82.63
26699;BME280;14313;50.892;13.756;2022-09-11T06:06:06;97610.97;;;18.49;82.25
26699;BME280;14313;50.892;13.756;2022-09-11T06:08:32;97615.50;;;18.35;82.10
26699;BME280;14313;50.892;13.756;2022-09-11T06:11:03;97618.16;;;18.48;82.06
26699;BME280;14313;50.892;13.756;2022-09-11T06:13:33;97620.63;;;18.50;81.91
26699;BME280;14313;50.892;13.756;2022-09-11T06:16:01;97625.38;;;18.67;81.40
26699;BME280;14313;50.892;13.756;2022-09-11T06:18:31;97627.63;;;18.31;82.89
26699;BME280;14313;50.892;13.756;2022-09-11T06:21:01;97628.84;;;18.35;82.74
26699;BME280;14313;50.892;13.756;2022-09-11T06:23:34;97630.50;;;18.49;82.68
26699;BME280;14313;50.892;13.756;2022-09-11T06:26:07;97632.75;;;18.46;82.79
26699;BME280;14313;50.892;13.756;2022-09-11T06:28:36;97632.78;;;18.59;82.41
26699;BME280;14313;50.892;13.756;2022-09-11T06:31:03;97637.50;;;18.90;81.20
26699;BME280;14313;50.892;13.756;2022-09-11T06:33:32;97644.28;;;18.72;81.59
26699;BME280;14313;50.892;13.756;2022-09-11T06:36:00;97651.09;;;18.82;81.26
26699;BME280;14313;50.892;13.756;2022-09-11T06:38:26;97646.38;;;18.70;81.86
26699;BME280;14313;50.892;13.756;2022-09-11T06:40:53;97646.34;;;18.57;82.30
26699;BME280;14313;50.892;13.756;2022-09-11T06:43:19;97653.16;;;18.86;81.22
26699;BME280;14313;50.892;13.756;2022-09-11T06:45:45;97647.78;;;18.80;81.76
26699;BME280;14313;50.892;13.756;2022-09-11T06:48:15;97642.00;;;19.29;80.19
26699;BME280;14313;50.892;13.756;2022-09-11T06:50:40;97647.13;;;19.24;79.83
26699;BME280;14313;50.892;13.756;2022-09-11T06:53:07;97645.13;;;18.60;81.97
26699;BME280;14313;50.892;13.756;2022-09-11T06:55:35;97649.22;;;18.89;80.99
26699;BME280;14313;50.892;13.756;2022-09-11T06:58:06;97656.84;;;18.85;80.91
26699;BME280;14313;50.892;13.756;2022-09-11T07:00:34;97663.00;;;18.66;82.50
26699;BME280;14313;50.892;13.756;2022-09-11T07:03:01;97660.50;;;18.45;83.54
26699;BME280;14313;50.892;13.756;2022-09-11T07:05:27;97652.94;;;18.55;82.73
26699;BME280;14313;50.892;13.756;2022-09-11T07:07:54;97650.66;;;19.04;80.99
26699;BME280;14313;50.892;13.756;2022-09-11T07:10:21;97652.50;;;19.10;80.14
26699;BME280;14313;50.892;13.756;2022-09-11T07:12:52;97654.75;;;19.13;80.35
26699;BME280;14313;50.892;13.756;2022-09-11T07:15:18;97656.63;;;19.06;80.67
26699;BME280;14313;50.892;13.756;2022-09-11T07:17:45;97660.31;;;19.05;80.51
26699;BME280;14313;50.892;13.756;2022-09-11T07:20:11;97659.47;;;19.25;80.23
26699;BME280;14313;50.892;13.756;2022-09-11T07:22:38;97659.50;;;18.98;80.57
26699;BME280;14313;50.892;13.756;2022-09-11T07:25:05;97662.56;;;19.28;80.68
26699;BME280;14313;50.892;13.756;2022-09-11T07:27:30;97656.81;;;19.18;80.10
26699;BME280;14313;50.892;13.756;2022-09-11T07:29:58;97666.81;;;19.55;79.30
26699;BME280;14313;50.892;13.756;2022-09-11T07:32:24;97672.19;;;19.55;79.13
26699;BME280;14313;50.892;13.756;2022-09-11T07:34:52;97675.28;;;19.59;78.68
26699;BME280;14313;50.892;13.756;2022-09-11T07:37:17;97675.22;;;19.72;78.97
26699;BME280;14313;50.892;13.756;2022-09-11T07:39:43;97673.63;;;19.51;79.06
26699;BME280;14313;50.892;13.756;2022-09-11T07:42:15;97671.59;;;19.53;79.62
26699;BME280;14313;50.892;13.756;2022-09-11T07:44:41;97680.44;;;19.34;80.61
26699;BME280;14313;50.892;13.756;2022-09-11T07:47:06;97675.16;;;19.85;79.13
26699;BME280;14313;50.892;13.756;2022-09-11T07:49:37;97681.84;;;19.56;79.11
26699;BME280;14313;50.892;13.756;2022-09-11T07:52:03;97684.16;;;19.46;79.70
26699;BME280;14313;50.892;13.756;2022-09-11T07:54:37;97690.66;;;19.77;78.63
26699;BME280;14313;50.892;13.756;2022-09-11T07:57:04;97688.16;;;19.82;78.27
26699;BME280;14313;50.892;13.756;2022-09-11T07:59:30;97695.41;;;19.68;78.32
26699;BME280;14313;50.892;13.756;2022-09-11T08:01:56;97687.97;;;19.70;78.07
26699;BME280;14313;50.892;13.756;2022-09-11T08:04:22;97693.75;;;19.67;78.20
26699;BME280;14313;50.892;13.756;2022-09-11T08:06:48;97695.59;;;19.73;77.87
26699;BME280;14313;50.892;13.756;2022-09-11T08:09:19;97695.06;;;20.02;76.44
26699;BME280;14313;50.892;13.756;2022-09-11T08:11:49;97696.44;;;20.18;76.00
26699;BME280;14313;50.892;13.756;2022-09-11T08:14:17;97697.41;;;20.30;75.31
26699;BME280;14313;50.892;13.756;2022-09-11T08:16:44;97705.34;;;20.57;74.84
26699;BME280;14313;50.892;13.756;2022-09-11T08:19:15;97707.78;;;20.14;74.43
26699;BME280;14313;50.892;13.756;2022-09-11T08:21:41;97715.00;;;20.58;73.49
26699;BME280;14313;50.892;13.756;2022-09-11T08:24:07;97722.72;;;21.04;71.86
26699;BME280;14313;50.892;13.756;2022-09-11T08:26:34;97716.31;;;21.05;71.44
26699;BME280;14313;50.892;13.756;2022-09-11T08:29:00;97721.25;;;20.52;73.46
26699;BME280;14313;50.892;13.756;2022-09-11T08:31:29;97712.91;;;20.66;72.99
26699;BME280;14313;50.892;13.756;2022-09-11T08:33:57;97714.00;;;20.52;73.64
26699;BME280;14313;50.892;13.756;2022-09-11T08:36:23;97715.56;;;20.35;73.59
26699;BME280;14313;50.892;13.756;2022-09-11T08:38:49;97715.44;;;20.86;72.02
26699;BME280;14313;50.892;13.756;2022-09-11T08:46:40;97721.53;;;21.67;70.09
26699;BME280;14313;50.892;13.756;2022-09-11T08:51:45;97736.75;;;21.31;70.70
26699;BME280;14313;50.892;13.756;2022-09-11T08:54:20;97737.78;;;21.54;69.70
26699;BME280;14313;50.892;13.756;2022-09-11T08:57:00;97722.63;;;21.60;69.57
26699;BME280;14313;50.892;13.756;2022-09-11T08:59:36;97733.47;;;21.53;69.86
26699;BME280;14313;50.892;13.756;2022-09-11T09:02:30;97730.47;;;21.43;70.36
26699;BME280;14313;50.892;13.756;2022-09-11T09:05:08;97733.00;;;21.07;72.04
26699;BME280;14313;50.892;13.756;2022-09-11T09:07:54;97741.44;;;20.48;74.73
26699;BME280;14313;50.892;13.756;2022-09-11T09:16:15;97747.69;;;20.41;75.90
26699;BME280;14313;50.892;13.756;2022-09-11T09:18:43;97740.28;;;20.30;76.22
26699;BME280;14313;50.892;13.756;2022-09-11T09:21:15;97742.25;;;20.86;75.24
26699;BME280;14313;50.892;13.756;2022-09-11T09:23:53;97746.84;;;21.04;74.52
26699;BME280;14313;50.892;13.756;2022-09-11T09:26:19;97748.44;;;21.11;74.06
26699;BME280;14313;50.892;13.756;2022-09-11T09:28:48;97750.28;;;20.86;74.61
26699;BME280;14313;50.892;13.756;2022-09-11T09:31:21;97749.72;;;20.77;75.11
26699;BME280;14313;50.892;13.756;2022-09-11T09:33:54;97748.69;;;21.03;74.14
26699;BME280;14313;50.892;13.756;2022-09-11T09:36:30;97763.16;;;21.34;73.18
26699;BME280;14313;50.892;13.756;2022-09-11T09:38:58;97753.44;;;21.57;72.21
26699;BME280;14313;50.892;13.756;2022-09-11T09:44:36;97749.88;;;21.63;70.07
26699;BME280;14313;50.892;13.756;2022-09-11T09:47:09;97756.28;;;21.13;70.60
26699;BME280;14313;50.892;13.756;2022-09-11T09:49:36;97757.56;;;21.04;72.32
26699;BME280;14313;50.892;13.756;2022-09-11T09:52:30;97755.22;;;21.20;72.04
26699;BME280;14313;50.892;13.756;2022-09-11T09:55:02;97759.25;;;20.98;73.36
26699;BME280;14313;50.892;13.756;2022-09-11T09:57:36;97754.88;;;21.04;73.55
26699;BME280;14313;50.892;13.756;2022-09-11T10:02:44;97763.91;;;21.84;71.55
26699;BME280;14313;50.892;13.756;2022-09-11T10:05:32;97774.88;;;21.82;70.59
26699;BME280;14313;50.892;13.756;2022-09-11T10:08:05;97759.25;;;22.16;69.53
26699;BME280;14313;50.892;13.756;2022-09-11T10:10:34;97765.16;;;22.72;67.74
26699;BME280;14313;50.892;13.756;2022-09-11T10:13:20;97765.38;;;23.12;66.66
26699;BME280;14313;50.892;13.756;2022-09-11T10:15:50;97770.66;;;22.59;67.59
26699;BME280;14313;50.892;13.756;2022-09-11T10:23:50;97777.06;;;22.46;68.55
26699;BME280;14313;50.892;13.756;2022-09-11T10:26:20;97782.03;;;22.43;68.53
26699;BME280;14313;50.892;13.756;2022-09-11T10:28:48;97781.13;;;22.67;68.39
26699;BME280;14313;50.892;13.756;2022-09-11T10:31:14;97784.44;;;22.51;69.12
26699;BME280;14313;50.892;13.756;2022-09-11T10:33:56;97780.50;;;22.83;67.26
26699;BME280;14313;50.892;13.756;2022-09-11T10:36:24;97785.84;;;22.72;67.71
26699;BME280;14313;50.892;13.756;2022-09-11T10:38:51;97791.69;;;22.50;68.17
26699;BME280;14313;50.892;13.756;2022-09-11T10:41:21;97800.84;;;21.88;69.85
26699;BME280;14313;50.892;13.756;2022-09-11T10:44:10;97802.28;;;21.41;71.02
26699;BME280;14313;50.892;13.756;2022-09-11T10:46:39;97806.63;;;20.73;74.12
26699;BME280;14313;50.892;13.756;2022-09-11T10:51:38;97804.88;;;20.54;75.75
26699;BME280;14313;50.892;13.756;2022-09-11T10:54:16;97806.78;;;20.47;74.94
26699;BME280;14313;50.892;13.756;2022-09-11T11:02:00;97822.59;;;21.80;70.61
26699;BME280;14313;50.892;13.756;2022-09-11T11:04:28;97823.06;;;21.52;70.54
26699;BME280;14313;50.892;13.756;2022-09-11T11:10:20;97829.25;;;21.28;72.19
26699;BME280;14313;50.892;13.756;2022-09-11T11:15:31;97827.25;;;21.17;71.37
26699;BME280;14313;50.892;13.756;2022-09-11T11:18:30;97837.56;;;21.13;70.82
26699;BME280;14313;50.892;13.756;2022-09-11T11:21:19;97835.44;;;21.53;69.45
26699;BME280;14313;50.892;13.756;2022-09-11T11:24:10;97838.38;;;21.14;69.44
26699;BME280;14313;50.892;13.756;2022-09-11T11:29:55;97851.31;;;20.85;72.56
26699;BME280;14313;50.892;13.756;2022-09-11T11:32:28;97845.09;;;20.47;73.70
26699;BME280;14313;50.892;13.756;2022-09-11T11:37:48;97860.06;;;19.51;77.16
26699;BME280;14313;50.892;13.756;2022-09-11T11:42:57;97861.09;;;19.83;76.38
26699;BME280;14313;50.892;13.756;2022-09-11T11:45:28;97864.38;;;19.65;76.19
26699;BME280;14313;50.892;13.756;2022-09-11T11:47:58;97875.72;;;19.61;76.80
26699;BME280;14313;50.892;13.756;2022-09-11T11:50:33;97873.16;;;19.20;78.31
26699;BME280;14313;50.892;13.756;2022-09-11T11:53:28;97878.38;;;19.61;76.41
26699;BME280;14313;50.892;13.756;2022-09-11T11:56:08;97880.44;;;19.52;75.87
26699;BME280;14313;50.892;13.756;2022-09-11T11:58:51;97886.16;;;19.36;76.51
26699;BME280;14313;50.892;13.756;2022-09-11T12:01:39;97881.84;;;19.28;76.74
26699;BME280;14313;50.892;13.756;2022-09-11T12:06:45;97890.50;;;19.37;76.64
26699;BME280;14313;50.892;13.756;2022-09-11T12:09:14;97895.19;;;19.35;76.31
26699;BME280;14313;50.892;13.756;2022-09-11T12:11:42;97885.94;;;19.17;76.91
26699;BME280;14313;50.892;13.756;2022-09-11T12:14:24;97897.97;;;18.94;77.61
26699;BME280;14313;50.892;13.756;2022-09-11T12:16:50;97905.63;;;19.03;77.04
26699;BME280;14313;50.892;13.756;2022-09-11T12:19:18;97894.84;;;19.44;75.75
26699;BME280;14313;50.892;13.756;2022-09-11T12:30:27;97898.97;;;19.53;76.22
26699;BME280;14313;50.892;13.756;2022-09-11T12:32:56;97903.50;;;19.66;74.79
26699;BME280;14313;50.892;13.756;2022-09-11T12:35:50;97908.41;;;19.43;75.54
26699;BME280;14313;50.892;13.756;2022-09-11T12:38:38;97909.25;;;19.56;75.50
26699;BME280;14313;50.892;13.756;2022-09-11T12:41:13;97907.22;;;19.78;74.87
26699;BME280;14313;50.892;13.756;2022-09-11T12:47:05;97907.50;;;19.03;77.93
26699;BME280;14313;50.892;13.756;2022-09-11T12:51:35;97912.00;;;19.02;79.90
26699;BME280;14313;50.892;13.756;2022-09-11T12:54:10;97910.44;;;19.28;79.28
26699;BME280;14313;50.892;13.756;2022-09-11T12:56:44;97910.59;;;19.13;79.72
26699;BME280;14313;50.892;13.756;2022-09-11T12:59:22;97915.78;;;19.34;78.50
26699;BME280;14313;50.892;13.756;2022-09-11T13:01:49;97908.75;;;19.20;78.98
26699;BME280;14313;50.892;13.756;2022-09-11T13:04:19;97918.47;;;19.41;78.03
26699;BME280;14313;50.892;13.756;2022-09-11T13:06:48;97918.22;;;19.29;78.25
26699;BME280;14313;50.892;13.756;2022-09-11T13:09:25;97913.56;;;19.51;77.75
26699;BME280;14313;50.892;13.756;2022-09-11T13:11:54;97917.84;;;19.32;79.42
26699;BME280;14313;50.892;13.756;2022-09-11T13:16:54;97916.56;;;19.15;80.73
26699;BME280;14313;50.892;13.756;2022-09-11T13:19:20;97905.91;;;19.41;80.02
26699;BME280;14313;50.892;13.756;2022-09-11T13:21:47;97916.47;;;19.63;78.11
26699;BME280;14313;50.892;13.756;2022-09-11T13:26:46;97901.22;;;19.76;75.90
26699;BME280;14313;50.892;13.756;2022-09-11T13:29:12;97899.97;;;20.89;73.42
26699;BME280;14313;50.892;13.756;2022-09-11T13:31:38;97895.81;;;20.93;71.73
26699;BME280;14313;50.892;13.756;2022-09-11T13:34:10;97894.47;;;21.22;71.52
26699;BME280;14313;50.892;13.756;2022-09-11T13:36:37;97898.47;;;21.00;70.96
26699;BME280;14313;50.892;13.756;2022-09-11T13:39:03;97896.16;;;21.16;70.56
26699;BME280;14313;50.892;13.756;2022-09-11T13:41:39;97897.56;;;20.74;72.33
26699;BME280;14313;50.892;13.756;2022-09-11T13:44:27;97896.91;;;20.85;72.17
26699;BME280;14313;50.892;13.756;2022-09-11T13:46:54;97886.91;;;20.55;72.63
26699;BME280;14313;50.892;13.756;2022-09-11T13:49:36;97892.53;;;20.27;73.59
26699;BME280;14313;50.892;13.756;2022-09-11T13:52:06;97887.84;;;20.09;74.33
26699;BME280;14313;50.892;13.756;2022-09-11T13:54:36;97884.34;;;20.15;74.07
26699;BME280;14313;50.892;13.756;2022-09-11T13:57:23;97886.81;;;20.10;73.73
26699;BME280;14313;50.892;13.756;2022-09-11T13:59:49;97889.09;;;19.93;74.00
26699;BME280;14313;50.892;13.756;2022-09-11T14:04:45;97889.06;;;20.20;74.04
26699;BME280;14313;50.892;13.756;2022-09-11T14:07:17;97884.72;;;20.19;73.65
26699;BME280;14313;50.892;13.756;2022-09-11T14:09:50;97883.88;;;20.38;72.51
26699;BME280;14313;50.892;13.756;2022-09-11T14:12:16;97878.41;;;21.47;69.99
26699;BME280;14313;50.892;13.756;2022-09-11T14:14:48;97887.47;;;21.77;69.06
26699;BME280;14313;50.892;13.756;2022-09-11T14:17:14;97873.34;;;23.16;64.35
26699;BME280;14313;50.892;13.756;2022-09-11T14:19:43;97878.72;;;24.45;60.56
26699;BME280;14313;50.892;13.756;2022-09-11T14:22:24;97863.84;;;26.83;53.37
26699;BME280;14313;50.892;13.756;2022-09-11T14:25:00;97871.28;;;27.14;52.16
26699;BME280;14313;50.892;13.756;2022-09-11T14:29:55;97868.19;;;27.54;49.96
26699;BME280;14313;50.892;13.756;2022-09-11T14:34:52;97867.50;;;27.15;49.67